^^
Grace C. Lehan Memorial Weather Station Historical Data
Daily Summary for July 13, 2021 Units:  English    Metric   Both
Daily Weekly Monthly Yearly
  High: Low: Average:
Temperature: 71.7 °F 54.6 °F 62.3 °F
Dew Point: 63.6 °F 53.1 °F 58.9 °F
Humidity: 97% 74.6% 89%
Wind Speed: 1.7mph 0mph 0.1mph
Wind Gust: 10mph - -
Wind- - West
Pressure: 30.03 in 29.91 in -
Precipitation: 0.00 in    
 
 
Tabular Data for July 13, 2021
Time Temperature Dew Point Pressure Wind Wind Speed Wind Gust Humidity Rainfall Rate (Hourly) solar
00:00 57.9 °F 55.6 °F 30.03 in Calm     92% 0.00 in 0 W/m2
00:09 57.8 °F 55.5 °F 30.03 in Calm     92% 0.00 in 0 W/m2
00:14 57.7 °F 55.4 °F 30.03 in Calm     92% 0.00 in 0 W/m2
00:19 57.7 °F 55.6 °F 30.03 in Calm     92.8% 0.00 in 0 W/m2
00:24 57.6 °F 55.5 °F 30.03 in Calm     92.7% 0.00 in 0 W/m2
00:29 57.6 °F 55.5 °F 30.03 in Calm     92.7% 0.00 in 0 W/m2
00:34 57.5 °F 55.5 °F 30.03 in Calm     93% 0.00 in 0 W/m2
00:39 57.5 °F 55.5 °F 30.03 in Calm     93% 0.00 in 0 W/m2
00:44 57.4 °F 55.4 °F 30.02 in Calm     93% 0.00 in 0 W/m2
00:49 57.3 °F 55.3 °F 30.02 in Calm     93% 0.00 in 0 W/m2
00:54 57.1 °F 55.1 °F 30.02 in Calm     93% 0.00 in 0 W/m2
00:59 57 °F 54.9 °F 30.02 in Calm     92.9% 0.00 in 0 W/m2
01:04 56.9 °F 54.9 °F 30.02 in Calm     93% 0.00 in 0 W/m2
01:09 56.8 °F 54.8 °F 30.02 in Calm     93% 0.00 in 0 W/m2
01:14 56.8 °F 54.8 °F 30.02 in Calm     93% 0.00 in 0 W/m2
01:19 56.7 °F 54.7 °F 30.02 in Calm     93% 0.00 in 0 W/m2
01:24 56.6 °F 54.6 °F 30.02 in Calm     93% 0.00 in 0 W/m2
01:29 56.6 °F 54.6 °F 30.02 in Calm     93% 0.00 in 0 W/m2
01:34 56.5 °F 54.5 °F 30.02 in Calm     93% 0.00 in 0 W/m2
01:39 56.5 °F 54.6 °F 30.02 in Calm     93.4% 0.00 in 0 W/m2
01:44 56.5 °F 54.8 °F 30.01 in Calm     94% 0.00 in 0 W/m2
01:49 56.5 °F 54.8 °F 30.02 in Calm     94% 0.00 in 0 W/m2
01:54 56.4 °F 54.7 °F 30.01 in Calm     94% 0.00 in 0 W/m2
01:59 56.4 °F 54.7 °F 30.01 in Calm     94% 0.00 in 0 W/m2
02:04 56.3 °F 54.6 °F 30.01 in Calm     94% 0.00 in 0 W/m2
02:09 56.2 °F 54.5 °F 30.01 in Calm     94% 0.00 in 0 W/m2
02:14 56.1 °F 54.4 °F 30.01 in Calm     94% 0.00 in 0 W/m2
02:19 56 °F 54.3 °F 30.01 in Calm     94% 0.00 in 0 W/m2
02:24 55.9 °F 54.2 °F 30.01 in Calm     94% 0.00 in 0 W/m2
02:29 55.8 °F 54.1 °F 30.01 in Calm     94% 0.00 in 0 W/m2
02:34 55.7 °F 54 °F 30.01 in Calm     94% 0.00 in 0 W/m2
02:39 55.6 °F 53.9 °F 30.01 in Calm     94% 0.00 in 0 W/m2
02:44 55.5 °F 53.8 °F 30.01 in Calm     94% 0.00 in 0 W/m2
02:49 55.5 °F 53.8 °F 30.01 in Calm     94% 0.00 in 0 W/m2
02:54 55.4 °F 53.7 °F 30.01 in Calm     94% 0.00 in 0 W/m2
02:59 55.4 °F 53.7 °F 30.01 in Calm     94% 0.00 in 0 W/m2
03:04 55.3 °F 53.6 °F 30.01 in Calm     94% 0.00 in 0 W/m2
03:09 55.1 °F 53.4 °F 30.01 in Calm     94% 0.00 in 0 W/m2
03:14 55 °F 53.3 °F 30.01 in Calm     94% 0.00 in 0 W/m2
03:19 54.8 °F 53.1 °F 30.01 in Calm     94% 0.00 in 0 W/m2
03:24 54.8 °F 53.1 °F 30.01 in Calm     94% 0.00 in 0 W/m2
03:29 54.9 °F 53.5 °F 30.01 in Calm     94.8% 0.00 in 0 W/m2
03:34 55 °F 53.6 °F 30.01 in Calm     95% 0.00 in 0 W/m2
03:39 55 °F 53.6 °F 30.02 in Calm     95% 0.00 in 0 W/m2
03:44 55.1 °F 53.7 °F 30.02 in Calm     95% 0.00 in 0 W/m2
03:49 55.2 °F 53.8 °F 30.02 in Calm     95% 0.00 in 0 W/m2
03:54 55.3 °F 53.9 °F 30.01 in Calm     95% 0.00 in 0 W/m2
03:59 55.5 °F 54.1 °F 30.02 in Calm     95% 0.00 in 0 W/m2
04:00 55.7 °F 54.3 °F 30.02 in Calm     95% 0.00 in 0 W/m2
04:09 55.6 °F 54.2 °F 30.02 in Calm     95% 0.00 in 0 W/m2
04:14 55.4 °F 54 °F 30.02 in Calm     95% 0.00 in 0 W/m2
04:19 55.3 °F 53.9 °F 30.02 in Calm     95% 0.00 in 0 W/m2
04:24 55.1 °F 53.7 °F 30.02 in Calm     95% 0.00 in 0 W/m2
04:29 55 °F 53.6 °F 30.01 in Calm     95% 0.00 in 0 W/m2
04:34 55 °F 53.6 °F 30.01 in Calm     95% 0.00 in 0 W/m2
04:39 54.9 °F 53.5 °F 30.02 in Calm     95% 0.00 in 0 W/m2
04:44 54.9 °F 53.5 °F 30.02 in Calm     95% 0.00 in 0 W/m2
04:49 54.8 °F 53.4 °F 30.02 in Calm     95% 0.00 in 0 W/m2
04:54 54.8 °F 53.4 °F 30.02 in Calm     95% 0.00 in 0 W/m2
04:59 54.8 °F 53.4 °F 30.02 in Calm     95% 0.00 in 0 W/m2
05:04 54.7 °F 53.3 °F 30.02 in Calm     95% 0.00 in 0 W/m2
05:09 54.7 °F 53.3 °F 30.02 in Calm     95% 0.00 in 0 W/m2
05:14 54.6 °F 53.2 °F 30.02 in Calm     95% 0.00 in 0 W/m2
05:19 54.6 °F 53.2 °F 30.02 in Calm     95% 0.00 in 0 W/m2
05:24 54.6 °F 53.2 °F 30.02 in Calm     95% 0.00 in 0 W/m2
05:29 54.6 °F 53.4 °F 30.02 in Calm     95.5% 0.00 in 0 W/m2
05:34 54.7 °F 53.6 °F 30.02 in Calm     96% 0.00 in 0 W/m2
05:39 54.7 °F 53.6 °F 30.02 in Calm     96% 0.00 in 0 W/m2
05:44 54.7 °F 53.6 °F 30.02 in Calm     96% 0.00 in 0 W/m2
05:49 54.7 °F 53.6 °F 30.02 in Calm     96% 0.00 in 0 W/m2
05:54 54.6 °F 53.5 °F 30.02 in Calm     96% 0.00 in 0 W/m2
05:59 54.6 °F 53.5 °F 30.02 in Calm     96% 0.00 in 0 W/m2
06:04 54.6 °F 53.5 °F 30.02 in Calm     96% 0.00 in 0 W/m2
06:09 54.7 °F 53.6 °F 30.02 in Calm     96% 0.00 in 0 W/m2
06:14 54.8 °F 53.7 °F 30.02 in Calm     96% 0.00 in 0 W/m2
06:19 54.9 °F 53.8 °F 30.02 in Calm     96% 0.00 in 0 W/m2
06:24 55 °F 53.8 °F 30.02 in Calm     96% 0.00 in 0 W/m2
06:29 55 °F 53.9 °F 30.02 in Calm     96% 0.00 in 0 W/m2
06:34 55.2 °F 54 °F 30.02 in Calm     96% 0.00 in 0 W/m2
06:39 55.3 °F 54.3 °F 30.02 in Calm     96.2% 0.00 in 0 W/m2
06:44 55.5 °F 54.4 °F 30.02 in Calm     96.2% 0.00 in 0 W/m2
06:49 55.5 °F 54.4 °F 30.02 in Calm     96% 0.00 in 0 W/m2
06:54 55.6 °F 54.5 °F 30.02 in Calm     96% 0.00 in 0 W/m2
06:59 55.7 °F 54.6 °F 30.02 in Calm     96% 0.00 in 0 W/m2
07:04 55.8 °F 54.7 °F 30.02 in Calm     96% 0.00 in 0 W/m2
07:09 55.8 °F 54.7 °F 30.02 in Calm     96% 0.00 in 0 W/m2
07:14 56 °F 54.8 °F 30.02 in Calm     96% 0.00 in 5 W/m2
07:19 56.1 °F 54.9 °F 30.02 in Calm     96% 0.00 in 9 W/m2
07:24 56.2 °F 55.1 °F 30.02 in Calm     96% 0.00 in 11 W/m2
07:29 56.3 °F 55.2 °F 30.02 in Calm     96% 0.00 in 11 W/m2
07:34 56.4 °F 55.3 °F 30.02 in Calm     96% 0.00 in 14 W/m2
07:39 56.5 °F 55.4 °F 30.02 in Calm     96% 0.00 in 18 W/m2
07:44 56.6 °F 55.5 °F 30.02 in Calm     96% 0.00 in 23 W/m2
07:49 56.7 °F 55.5 °F 30.01 in Calm     96% 0.00 in 28 W/m2
07:54 56.7 °F 55.6 °F 30.02 in Calm     96% 0.00 in 37 W/m2
07:59 56.8 °F 55.7 °F 30.02 in Calm     96% 0.00 in 44 W/m2
08:00 56.8 °F 55.7 °F 30.01 in Calm     96% 0.00 in 44 W/m2
08:09 57 °F 55.9 °F 30.02 in Calm     96% 0.00 in 62 W/m2
08:14 57.1 °F 56 °F 30.02 in Calm     96% 0.00 in 74 W/m2
08:19 57.1 °F 56 °F 30.02 in Calm     96% 0.00 in 56 W/m2
08:24 57.1 °F 56 °F 30.02 in Calm     96% 0.00 in 51 W/m2
08:29 57.1 °F 56 °F 30.02 in Calm     96% 0.00 in 53 W/m2
08:34 57.1 °F 56 °F 30.02 in Calm     96% 0.00 in 54 W/m2
08:39 57.2 °F 56.1 °F 30.02 in Calm     96% 0.00 in 69 W/m2
08:44 57.3 °F 56.2 °F 30.02 in Calm     96.1% 0.00 in 79 W/m2
08:49 57.4 °F 56.5 °F 30.03 in Calm     96.9% 0.00 in 77 W/m2
08:54 57.5 °F 56.4 °F 30.03 in Calm   1 mph 96.2% 0.00 in 86 W/m2
08:59 57.6 °F 56.6 °F 30.03 in Calm   2 mph 96.5% 0.00 in 79 W/m2
09:04 57.7 °F 56.7 °F 30.03 in Calm   2 mph 96.5% 0.00 in 69 W/m2
09:09 57.9 °F 56.7 °F 30.03 in Calm     96% 0.00 in 97 W/m2
09:14 57.9 °F 56.8 °F 30.03 in Calm     96% 0.00 in 111 W/m2
09:19 58 °F 56.9 °F 30.02 in Calm     96% 0.00 in 88 W/m2
09:24 58 °F 56.9 °F 30.02 in Calm     96.2% 0.00 in 148 W/m2
09:29 58 °F 56.9 °F 30.02 in Calm     96.2% 0.00 in 148 W/m2
09:34 58.2 °F 57.3 °F 30.02 in Calm     97% 0.00 in 142 W/m2
09:39 58.4 °F 57.5 °F 30.02 in Calm     97% 0.00 in 120 W/m2
09:44 58.5 °F 57.6 °F 30.02 in Calm     97% 0.00 in 155 W/m2
09:49 58.7 °F 57.8 °F 30.02 in Calm     97% 0.00 in 174 W/m2
09:54 58.8 °F 58 °F 30.02 in Calm     97% 0.00 in 178 W/m2
09:59 58.9 °F 58.1 °F 30.02 in Calm     97% 0.00 in 179 W/m2
10:04 59.2 °F 58.4 °F 30.02 in Calm     97% 0.00 in 151 W/m2
10:09 59.5 °F 58.7 °F 30.02 in Calm     97% 0.00 in 171 W/m2
10:14 59.8 °F 59 °F 30.02 in Calm     97% 0.00 in 193 W/m2
10:19 60.1 °F 59.3 °F 30.02 in Calm     97% 0.00 in 193 W/m2
10:24 60.3 °F 59.4 °F 30.02 in Calm     97% 0.00 in 250 W/m2
10:29 60.5 °F 59.6 °F 30.02 in Calm     97% 0.00 in 250 W/m2
10:34 60.6 °F 59.7 °F 30.01 in Calm     97% 0.00 in 292 W/m2
10:39 60.8 °F 60 °F 30.02 in Calm     97% 0.00 in 292 W/m2
10:44 61.1 °F 60.1 °F 30.02 in Calm     96.7% 0.00 in 225 W/m2
10:49 61.3 °F 60.4 °F 30.02 in Calm     96.8% 0.00 in 267 W/m2
10:54 61.9 °F 60.8 °F 30.01 in Calm     96.2% 0.00 in 559 W/m2
10:59 62.6 °F 61.5 °F 30.01 in SW 0.1 mph 2 mph 96.2% 0.00 in 624 W/m2
11:04 63.5 °F 62.3 °F 30.01 in Calm   2 mph 96% 0.00 in 608 W/m2
11:09 64.4 °F 62.8 °F 30.01 in SSW 0.1 mph 2 mph 94.5% 0.00 in 608 W/m2
11:14 64.9 °F 62.4 °F 30.01 in Calm   2 mph 91.6% 0.00 in 192 W/m2
11:19 65.1 °F 61.9 °F 30.01 in Calm   2 mph 89.6% 0.00 in 135 W/m2
11:24 65.2 °F 61.9 °F 30.01 in Calm   2 mph 89% 0.00 in 229 W/m2
11:29 65.3 °F 61.8 °F 30.01 in Calm   2 mph 88.6% 0.00 in 243 W/m2
11:34 65.4 °F 61.7 °F 30.01 in Calm   2 mph 88% 0.00 in 243 W/m2
11:39 65.7 °F 62 °F 30.00 in Calm     88% 0.00 in 221 W/m2
11:44 65.9 °F 62.1 °F 30.00 in Calm     87.5% 0.00 in 239 W/m2
11:49 66.2 °F 62.2 °F 30.00 in Calm     87% 0.00 in 206 W/m2
11:54 66.5 °F 62.3 °F 30.00 in Calm     86.4% 0.00 in 230 W/m2
11:59 66.6 °F 62.3 °F 30.00 in Calm     86% 0.00 in 236 W/m2
12:00 66.8 °F 62.5 °F 30.00 in Calm     86% 0.00 in 209 W/m2
12:09 67.2 °F 62.9 °F 30.00 in Calm     86% 0.00 in 209 W/m2
12:14 67.3 °F 62.5 °F 30.00 in Calm     84.6% 0.00 in 199 W/m2
12:19 67.5 °F 62.6 °F 29.99 in Calm   1 mph 84.3% 0.00 in 234 W/m2
12:24 67.8 °F 62.9 °F 29.99 in SSW 0.2 mph 4 mph 84.3% 0.00 in 325 W/m2
12:29 68.3 °F 63 °F 29.99 in SW 0.1 mph 4 mph 83.1% 0.00 in 371 W/m2
12:34 68.9 °F 62.9 °F 29.98 in SW 0.2 mph 4 mph 81.1% 0.00 in 253 W/m2
12:39 69.3 °F 62.7 °F 29.98 in Calm   3 mph 79.5% 0.00 in 239 W/m2
12:44 69.6 °F 62.8 °F 29.98 in WSW 0.5 mph 6 mph 79% 0.00 in 251 W/m2
12:49 69.8 °F 63 °F 29.98 in WSW 0.5 mph 6 mph 79% 0.00 in 267 W/m2
12:54 70.2 °F 63.2 °F 29.98 in Calm   6 mph 78.5% 0.00 in 281 W/m2
12:59 70.5 °F 63.6 °F 29.97 in West 0.1 mph 6 mph 78.8% 0.00 in 262 W/m2
13:04 70.9 °F 63.6 °F 29.97 in West 0.2 mph 6 mph 77.6% 0.00 in 236 W/m2
13:09 71.2 °F 63.4 °F 29.97 in Calm   4 mph 76.5% 0.00 in 229 W/m2
13:14 71.2 °F 63.2 °F 29.97 in Calm   4 mph 75.8% 0.00 in 262 W/m2
13:19 71.2 °F 63.1 °F 29.96 in West 0.4 mph 5 mph 75.5% 0.00 in 297 W/m2
13:24 71.3 °F 63.3 °F 29.96 in West 0.9 mph 5 mph 75.8% 0.00 in 220 W/m2
13:29 71.4 °F 63.4 °F 29.96 in West 0.2 mph 5 mph 75.7% 0.00 in 223 W/m2
13:34 71.5 °F 63.2 °F 29.95 in West 1 mph 7 mph 75% 0.00 in 209 W/m2
13:39 71.4 °F 63.1 °F 29.95 in Calm   7 mph 75% 0.00 in 221 W/m2
13:44 71.4 °F 63.4 °F 29.95 in West 0.2 mph 7 mph 75.7% 0.00 in 237 W/m2
13:49 71.5 °F 63.5 °F 29.95 in West 0.1 mph 7 mph 75.7% 0.00 in 218 W/m2
13:54 71.6 °F 63.3 °F 29.95 in WSW 0.7 mph 7 mph 75% 0.00 in 171 W/m2
13:59 71.6 °F 63.2 °F 29.95 in Calm   7 mph 74.7% 0.00 in 206 W/m2
14:04 71.7 °F 63.4 °F 29.95 in Calm   7 mph 75% 0.00 in 183 W/m2
14:09 71.7 °F 63.4 °F 29.94 in WSW 0.1 mph 4 mph 75% 0.00 in 211 W/m2
14:14 71.7 °F 63.2 °F 29.94 in WSW 0.3 mph 5 mph 74.6% 0.00 in 209 W/m2
14:19 71.7 °F 63.3 °F 29.94 in WSW 0.1 mph 5 mph 74.9% 0.00 in 209 W/m2
14:24 71.7 °F 63.4 °F 29.94 in West 0.4 mph 6 mph 75.2% 0.00 in 193 W/m2
14:29 71.6 °F 63.2 °F 29.94 in West 1.3 mph 6 mph 74.8% 0.00 in 209 W/m2
14:34 71.5 °F 63.2 °F 29.94 in West 0.4 mph 6 mph 75.1% 0.00 in 197 W/m2
14:39 71.4 °F 63.3 °F 29.94 in West 0.5 mph 5 mph 75.7% 0.00 in 171 W/m2
14:44 71.2 °F 63.2 °F 29.94 in West 1.3 mph 10 mph 75.7% 0.00 in 155 W/m2
14:49 71.1 °F 63.4 °F 29.94 in West 0.3 mph 10 mph 76.5% 0.00 in 176 W/m2
14:54 71 °F 63.1 °F 29.94 in West 1.5 mph 10 mph 76.2% 0.00 in 181 W/m2
14:59 70.9 °F 63.1 °F 29.94 in West 1.7 mph 10 mph 76.5% 0.00 in 165 W/m2
15:04 70.8 °F 63.2 °F 29.94 in West 1.6 mph 10 mph 76.8% 0.00 in 137 W/m2
15:09 70.6 °F 62.9 °F 29.94 in West 0.4 mph 7 mph 76.6% 0.00 in 132 W/m2
15:14 70.5 °F 63 °F 29.94 in West 0.4 mph 7 mph 77% 0.00 in 109 W/m2
15:19 70.4 °F 63.1 °F 29.94 in West 0.8 mph 7 mph 77.6% 0.00 in 98 W/m2
15:24 70.3 °F 63.1 °F 29.94 in West 0.8 mph 7 mph 78% 0.00 in 93 W/m2
15:29 70.1 °F 62.9 °F 29.94 in West 0.7 mph 7 mph 78% 0.00 in 95 W/m2
15:34 69.9 °F 62.8 °F 29.94 in West 1.4 mph 7 mph 78% 0.00 in 86 W/m2
15:39 69.8 °F 62.7 °F 29.94 in West 0.4 mph 6 mph 78.1% 0.00 in 76 W/m2
15:44 69.7 °F 62.9 °F 29.94 in West 0.3 mph 6 mph 79% 0.00 in 70 W/m2
15:49 69.5 °F 62.7 °F 29.94 in West 0.1 mph 6 mph 78.8% 0.00 in 74 W/m2
15:54 69.4 °F 62.6 °F 29.94 in West 0.3 mph 6 mph 79% 0.00 in 79 W/m2
15:59 69.4 °F 62.6 °F 29.94 in West 0.5 mph 6 mph 79.2% 0.00 in 81 W/m2
16:00 69.3 °F 62.5 °F 29.94 in Calm   6 mph 79% 0.00 in 74 W/m2
16:09 69.2 °F 62.5 °F 29.94 in Calm   1 mph 79.4% 0.00 in 72 W/m2
16:14 69.2 °F 62.8 °F 29.94 in Calm   1 mph 80% 0.00 in 72 W/m2
16:19 69.1 °F 62.8 °F 29.94 in Calm   1 mph 80.2% 0.00 in 58 W/m2
16:24 69.1 °F 62.7 °F 29.94 in West 1.2 mph 5 mph 80.2% 0.00 in 46 W/m2
16:29 68.9 °F 62.5 °F 29.94 in West 0.3 mph 5 mph 80.1% 0.00 in 53 W/m2
16:34 68.8 °F 62.7 °F 29.94 in West 0.2 mph 5 mph 81% 0.00 in 56 W/m2
16:39 68.8 °F 62.7 °F 29.94 in Calm   5 mph 81% 0.00 in 56 W/m2
16:44 68.7 °F 62.7 °F 29.94 in Calm   5 mph 81% 0.00 in 54 W/m2
16:49 68.7 °F 62.6 °F 29.94 in Calm   5 mph 81% 0.00 in 53 W/m2
16:54 68.7 °F 62.7 °F 29.94 in Calm   5 mph 81.2% 0.00 in 42 W/m2
16:59 68.6 °F 62.6 °F 29.95 in Calm   5 mph 81% 0.00 in 33 W/m2
17:04 68.6 °F 62.5 °F 29.94 in Calm   5 mph 81% 0.00 in 33 W/m2
17:09 68.5 °F 62.5 °F 29.94 in Calm     81% 0.00 in 33 W/m2
17:14 68.4 °F 62.4 °F 29.94 in Calm     81% 0.00 in 33 W/m2
17:19 68.4 °F 62.5 °F 29.94 in Calm     81.3% 0.00 in 28 W/m2
17:24 68.4 °F 62.7 °F 29.94 in Calm     82% 0.00 in 23 W/m2
17:29 68.3 °F 62.6 °F 29.94 in Calm     82% 0.00 in 19 W/m2
17:34 68.2 °F 62.5 °F 29.94 in Calm     82% 0.00 in 14 W/m2
17:39 68.1 °F 62.4 °F 29.94 in Calm     82% 0.00 in 14 W/m2
17:44 68.1 °F 62.4 °F 29.94 in Calm     82% 0.00 in 12 W/m2
17:49 68 °F 62.4 °F 29.94 in Calm     82.4% 0.00 in 7 W/m2
17:54 67.9 °F 62.2 °F 29.94 in Calm     82% 0.00 in 5 W/m2
17:58 67.8 °F 62.1 °F 29.94 in Calm     82% 0.00 in 5 W/m2
18:04 67.7 °F 62.4 °F 29.94 in Calm     83% 0.00 in 0 W/m2
18:09 67.7 °F 62.3 °F 29.94 in Calm     83% 0.00 in 0 W/m2
18:14 67.6 °F 62.3 °F 29.94 in Calm     83% 0.00 in 0 W/m2
18:19 67.5 °F 62.2 °F 29.94 in Calm     83% 0.00 in 0 W/m2
18:24 67.4 °F 62.1 °F 29.94 in Calm     83% 0.00 in 0 W/m2
18:29 67.4 °F 62.1 °F 29.94 in Calm     83.1% 0.00 in 0 W/m2
18:34 67.3 °F 62.1 °F 29.94 in Calm     83.3% 0.00 in 0 W/m2
18:39 67.2 °F 62.2 °F 29.94 in Calm     84% 0.00 in 0 W/m2
18:44 67.1 °F 62.1 °F 29.94 in Calm     84% 0.00 in 0 W/m2
18:49 67.1 °F 62.1 °F 29.94 in Calm     84% 0.00 in 0 W/m2
18:54 67 °F 62 °F 29.94 in Calm     84% 0.00 in 0 W/m2
18:59 66.9 °F 62.1 °F 29.94 in Calm     84.7% 0.00 in 0 W/m2
19:04 66.8 °F 62.2 °F 29.94 in Calm     85% 0.00 in 0 W/m2
19:09 66.8 °F 62.2 °F 29.94 in Calm     85% 0.00 in 0 W/m2
19:14 66.8 °F 62.1 °F 29.94 in Calm     85% 0.00 in 0 W/m2
19:19 66.7 °F 62.1 °F 29.94 in Calm     85% 0.00 in 0 W/m2
19:24 66.7 °F 62 °F 29.94 in Calm     85% 0.00 in 0 W/m2
19:29 66.6 °F 62.2 °F 29.95 in Calm     85.8% 0.00 in 0 W/m2
19:34 66.6 °F 62.3 °F 29.95 in Calm     86% 0.00 in 0 W/m2
19:39 66.5 °F 62.2 °F 29.95 in Calm     86% 0.00 in 0 W/m2
19:44 66.5 °F 62.2 °F 29.95 in Calm     86% 0.00 in 0 W/m2
19:49 66.4 °F 62.1 °F 29.95 in Calm     86% 0.00 in 0 W/m2
19:54 66.4 °F 62.1 °F 29.94 in Calm     86% 0.00 in 0 W/m2
19:59 66.3 °F 62 °F 29.94 in Calm     86% 0.00 in 0 W/m2
20:00 66.3 °F 62 °F 29.94 in Calm     86% 0.00 in 0 W/m2
20:09 66.1 °F 61.8 °F 29.94 in Calm     86% 0.00 in 0 W/m2
20:14 66 °F 61.7 °F 29.94 in Calm     86% 0.00 in 0 W/m2
20:19 65.8 °F 61.5 °F 29.94 in Calm     86% 0.00 in 0 W/m2
20:24 65.7 °F 61.4 °F 29.94 in Calm     86% 0.00 in 0 W/m2
20:29 65.6 °F 61.4 °F 29.94 in Calm     86.3% 0.00 in 0 W/m2
20:34 65.4 °F 61.3 °F 29.94 in Calm   1 mph 86.7% 0.00 in 0 W/m2
20:39 65.3 °F 61.3 °F 29.94 in Calm   1 mph 87% 0.00 in 0 W/m2
20:44 65.1 °F 61.2 °F 29.94 in Calm   1 mph 87% 0.00 in 0 W/m2
20:49 65 °F 61.3 °F 29.94 in Calm   1 mph 87.8% 0.00 in 0 W/m2
20:54 64.9 °F 61.3 °F 29.93 in Calm   1 mph 88% 0.00 in 0 W/m2
20:59 64.8 °F 61.2 °F 29.93 in Calm   1 mph 88% 0.00 in 0 W/m2
21:04 64.7 °F 61.1 °F 29.94 in Calm   1 mph 88% 0.00 in 0 W/m2
21:09 64.6 °F 61.1 °F 29.93 in Calm     88.3% 0.00 in 0 W/m2
21:14 64.5 °F 61.2 °F 29.93 in Calm     89% 0.00 in 0 W/m2
21:19 64.3 °F 60.8 °F 29.93 in Calm     88.4% 0.00 in 0 W/m2
21:24 64.2 °F 60.8 °F 29.93 in Calm     88.8% 0.00 in 0 W/m2
21:29 64 °F 60.7 °F 29.93 in Calm     89% 0.00 in 0 W/m2
21:34 63.9 °F 60.6 °F 29.94 in Calm     89% 0.00 in 0 W/m2
21:39 63.8 °F 60.5 °F 29.93 in Calm     89% 0.00 in 0 W/m2
21:44 63.7 °F 60.6 °F 29.93 in Calm     89.7% 0.00 in 0 W/m2
21:49 63.6 °F 60.6 °F 29.93 in Calm     90% 0.00 in 0 W/m2
21:54 63.5 °F 60.5 °F 29.93 in Calm     90% 0.00 in 0 W/m2
21:59 63.4 °F 60.4 °F 29.93 in Calm     90.2% 0.00 in 0 W/m2
22:04 63.2 °F 60.3 °F 29.93 in Calm     90.2% 0.00 in 0 W/m2
22:09 63.2 °F 60.4 °F 29.93 in Calm     90.7% 0.00 in 0 W/m2
22:14 63.1 °F 60.4 °F 29.93 in Calm     91% 0.00 in 0 W/m2
22:19 63 °F 60.4 °F 29.93 in Calm     91% 0.00 in 0 W/m2
22:24 62.9 °F 60.3 °F 29.92 in Calm     91% 0.00 in 0 W/m2
22:29 62.8 °F 60.1 °F 29.92 in Calm     91% 0.00 in 0 W/m2
22:34 62.7 °F 60 °F 29.92 in Calm     91% 0.00 in 0 W/m2
22:39 62.5 °F 59.9 °F 29.92 in Calm     91% 0.00 in 0 W/m2
22:44 62.4 °F 59.9 °F 29.92 in Calm     91.4% 0.00 in 0 W/m2
22:49 62.3 °F 60 °F 29.93 in Calm     92% 0.00 in 0 W/m2
22:54 62.2 °F 59.9 °F 29.92 in Calm     92% 0.00 in 0 W/m2
22:59 62.1 °F 59.8 °F 29.92 in Calm     92% 0.00 in 0 W/m2
23:04 62 °F 59.7 °F 29.92 in Calm     92% 0.00 in 0 W/m2
23:09 61.9 °F 59.6 °F 29.92 in Calm     92% 0.00 in 0 W/m2
23:14 61.8 °F 59.5 °F 29.92 in Calm     92% 0.00 in 0 W/m2
23:19 61.8 °F 59.7 °F 29.92 in Calm     92.9% 0.00 in 0 W/m2
23:24 61.7 °F 59.7 °F 29.92 in Calm     93% 0.00 in 0 W/m2
23:29 61.7 °F 59.6 °F 29.91 in Calm     93% 0.00 in 0 W/m2
23:34 61.6 °F 59.6 °F 29.91 in Calm     93% 0.00 in 0 W/m2
23:39 61.6 °F 59.6 °F 29.91 in Calm     93% 0.00 in 0 W/m2
23:44 61.5 °F 59.5 °F 29.91 in Calm     93% 0.00 in 0 W/m2
23:49 61.5 °F 59.5 °F 29.91 in Calm     93% 0.00 in 0 W/m2
23:54 61.5 °F 59.4 °F 29.91 in Calm     93% 0.00 in 0 W/m2
23:59 61.4 °F 59.4 °F 29.91 in Calm     93% 0.00 in 0 W/m2
Hartford County Weather
Compliments of Weather Underground - 2 mb